createdAt,value
2022-12-23T00:00:58.876Z,94418.81
2022-12-23T00:03:25.165Z,94406.78
2022-12-23T00:05:51.480Z,94417.38
2022-12-23T00:08:17.746Z,94426.09
2022-12-23T00:10:43.992Z,94429.34
2022-12-23T00:13:10.246Z,94430.97
2022-12-23T00:15:36.501Z,94434.31
2022-12-23T00:18:02.753Z,94429.34
2022-12-23T00:20:29.000Z,94424.06
2022-12-23T00:22:55.265Z,94417.94
2022-12-23T00:25:21.519Z,94424.00
2022-12-23T00:27:47.746Z,94416.47
2022-12-23T00:30:13.991Z,94415.75
2022-12-23T00:32:40.277Z,94401.53
2022-12-23T00:35:06.513Z,94413.00
2022-12-23T00:37:32.762Z,94407.03
2022-12-23T00:40:05.897Z,94419.75
2022-12-23T00:42:32.936Z,94409.13
2022-12-23T00:44:59.235Z,94416.03
2022-12-23T00:47:25.500Z,94411.09
2022-12-23T00:49:51.742Z,94425.97
2022-12-23T00:52:18.008Z,94417.88
2022-12-23T00:54:44.263Z,94425.63
2022-12-23T00:57:10.527Z,94415.97
2022-12-23T00:59:36.788Z,94413.81
2022-12-23T01:02:03.269Z,94429.59
2022-12-23T01:04:29.621Z,94425.16
2022-12-23T01:06:55.861Z,94419.88
2022-12-23T01:09:22.108Z,94419.34
2022-12-23T01:11:48.342Z,94416.16
2022-12-23T01:14:14.580Z,94398.34
2022-12-23T01:16:40.939Z,94412.31
2022-12-23T01:19:07.225Z,94408.41
2022-12-23T01:21:33.481Z,94423.38
2022-12-23T01:23:59.730Z,94422.81
2022-12-23T01:26:25.987Z,94417.75
2022-12-23T01:28:52.234Z,94418.00
2022-12-23T01:31:18.543Z,94423.53
2022-12-23T01:33:44.799Z,94430.38
2022-12-23T01:36:11.089Z,94425.78
2022-12-23T01:38:37.340Z,94431.06
2022-12-23T01:41:03.606Z,94445.22
2022-12-23T01:43:29.844Z,94448.56
2022-12-23T01:45:56.132Z,94439.88
2022-12-23T01:48:22.385Z,94450.13
2022-12-23T01:50:48.661Z,94442.75
2022-12-23T01:53:14.902Z,94445.59
2022-12-23T01:55:41.223Z,94443.34
2022-12-23T01:58:07.488Z,94437.34
2022-12-23T02:00:33.723Z,94431.59
2022-12-23T02:03:00.114Z,94426.84
2022-12-23T02:05:26.485Z,94425.22
2022-12-23T02:07:52.739Z,94422.66
2022-12-23T02:10:18.996Z,94426.25
2022-12-23T02:12:45.252Z,94426.38
2022-12-23T02:15:11.520Z,94412.19
2022-12-23T02:17:37.749Z,94418.72
2022-12-23T02:20:04.010Z,94426.81
2022-12-23T02:22:30.270Z,94429.31
2022-12-23T02:24:56.512Z,94417.16
2022-12-23T02:27:22.743Z,94420.19
2022-12-23T02:29:49.048Z,94431.53
2022-12-23T02:32:15.308Z,94436.53
2022-12-23T02:34:41.580Z,94427.88
2022-12-23T02:37:07.936Z,94423.63
2022-12-23T02:39:34.168Z,94438.16
2022-12-23T02:42:00.408Z,94441.88
2022-12-23T02:44:26.672Z,94439.44
2022-12-23T02:46:52.946Z,94429.56
2022-12-23T02:49:19.203Z,94423.59
2022-12-23T02:51:45.469Z,94428.59
2022-12-23T02:54:11.727Z,94414.50
2022-12-23T02:56:37.984Z,94412.94
2022-12-23T02:59:04.249Z,94423.09
2022-12-23T03:01:30.625Z,94430.06
2022-12-23T03:03:57.083Z,94417.97
2022-12-23T03:06:23.393Z,94427.00
2022-12-23T03:08:49.680Z,94430.28
2022-12-23T03:11:15.939Z,94433.00
2022-12-23T03:13:42.182Z,94435.66
2022-12-23T03:16:08.496Z,94420.94
2022-12-23T03:18:34.845Z,94419.72
2022-12-23T03:21:01.123Z,94427.19
2022-12-23T03:23:27.471Z,94431.41
2022-12-23T03:25:53.702Z,94429.78
2022-12-23T03:28:19.937Z,94416.66
2022-12-23T03:30:46.245Z,94415.56
2022-12-23T03:33:12.523Z,94420.97
2022-12-23T03:35:38.766Z,94421.66
2022-12-23T03:38:05.001Z,94415.44
2022-12-23T03:40:31.240Z,94425.38
2022-12-23T03:42:57.550Z,94424.50
2022-12-23T03:45:40.844Z,94425.91
2022-12-23T03:48:07.708Z,94425.00
2022-12-23T03:50:33.959Z,94426.44
2022-12-23T03:53:00.202Z,94429.06
2022-12-23T03:55:26.494Z,94422.78
2022-12-23T03:57:52.759Z,94432.50
2022-12-23T04:00:19.001Z,94431.22
2022-12-23T04:02:45.392Z,94432.44
2022-12-23T04:05:11.736Z,94428.19
2022-12-23T04:07:37.984Z,94423.72
2022-12-23T04:10:04.238Z,94418.72
2022-12-23T04:12:30.522Z,94415.19
2022-12-23T04:14:56.797Z,94409.28
2022-12-23T04:17:23.090Z,94427.81
2022-12-23T04:19:49.328Z,94429.16
2022-12-23T04:22:15.574Z,94430.53
2022-12-23T04:24:41.818Z,94445.13
2022-12-23T04:27:08.068Z,94436.41
2022-12-23T04:29:34.308Z,94433.38
2022-12-23T04:32:00.567Z,94433.34
2022-12-23T04:34:26.825Z,94435.78
2022-12-23T04:36:53.064Z,94436.22
2022-12-23T04:39:19.326Z,94444.56
2022-12-23T04:41:45.585Z,94445.81
2022-12-23T04:44:11.890Z,94442.28
2022-12-23T04:46:38.170Z,94449.69
2022-12-23T04:49:04.474Z,94437.41
2022-12-23T04:51:30.758Z,94449.97
2022-12-23T04:53:57.008Z,94445.19
2022-12-23T04:56:23.291Z,94442.00
2022-12-23T04:58:49.535Z,94448.44
2022-12-23T05:01:15.875Z,94439.81
2022-12-23T05:03:42.202Z,94450.13
2022-12-23T05:06:08.456Z,94450.44
2022-12-23T05:08:34.721Z,94451.69
2022-12-23T05:11:00.977Z,94457.59
2022-12-23T05:13:27.233Z,94453.94
2022-12-23T05:15:53.574Z,94448.25
2022-12-23T05:18:19.875Z,94449.66
2022-12-23T05:20:46.113Z,94443.91
2022-12-23T05:23:12.373Z,94451.47
2022-12-23T05:25:38.632Z,94440.31
2022-12-23T05:28:04.873Z,94440.13
2022-12-23T05:30:31.132Z,94439.41
2022-12-23T05:32:57.422Z,94430.00
2022-12-23T05:35:23.724Z,94432.00
2022-12-23T05:37:49.957Z,94427.53
2022-12-23T05:40:21.567Z,94427.25
2022-12-23T05:42:49.881Z,94430.66
2022-12-23T05:45:16.123Z,94424.63
2022-12-23T05:47:42.391Z,94424.97
2022-12-23T05:50:08.648Z,94417.19
2022-12-23T05:52:34.901Z,94415.44
2022-12-23T05:55:01.164Z,94416.66
2022-12-23T05:57:27.424Z,94400.44
2022-12-23T05:59:53.673Z,94403.91
2022-12-23T06:02:20.013Z,94399.28
2022-12-23T06:04:46.289Z,94404.63
2022-12-23T06:07:12.522Z,94396.13
2022-12-23T06:09:38.781Z,94410.56
2022-12-23T06:12:05.057Z,94414.44
2022-12-23T06:14:31.292Z,94417.47
2022-12-23T06:16:57.708Z,94408.53
2022-12-23T06:19:24.027Z,94414.00
2022-12-23T06:21:50.298Z,94413.63
2022-12-23T06:24:16.536Z,94413.41
2022-12-23T06:26:42.813Z,94431.06
2022-12-23T06:29:09.058Z,94420.78
2022-12-23T06:31:35.330Z,94425.84
2022-12-23T06:34:01.921Z,94424.16
2022-12-23T06:36:28.316Z,94428.88
2022-12-23T06:38:54.582Z,94437.34
2022-12-23T06:41:20.841Z,94433.94
2022-12-23T06:43:52.561Z,94432.88
2022-12-23T06:46:20.611Z,94414.09
2022-12-23T06:48:46.925Z,94420.97
2022-12-23T06:51:13.187Z,94419.84
2022-12-23T06:53:39.437Z,94410.94
2022-12-23T06:56:05.698Z,94424.34
2022-12-23T06:58:31.961Z,94428.63
2022-12-23T07:00:58.266Z,94427.81
2022-12-23T07:03:24.643Z,94428.38
2022-12-23T07:05:50.933Z,94429.19
2022-12-23T07:08:17.169Z,94420.84
2022-12-23T07:10:43.434Z,94427.00
2022-12-23T07:13:09.682Z,94430.44
2022-12-23T07:15:35.926Z,94434.28
2022-12-23T07:18:02.174Z,94435.72
2022-12-23T07:20:28.516Z,94443.28
2022-12-23T07:22:54.803Z,94440.25
2022-12-23T07:25:21.065Z,94440.53
2022-12-23T07:27:47.338Z,94452.69
2022-12-23T07:30:13.586Z,94460.72
2022-12-23T07:32:39.914Z,94466.47
2022-12-23T07:35:06.174Z,94459.66
2022-12-23T07:37:32.425Z,94452.44
2022-12-23T07:40:02.126Z,94455.69
2022-12-23T07:42:45.132Z,94459.19
2022-12-23T07:45:12.171Z,94446.88
2022-12-23T07:47:38.547Z,94452.16
2022-12-23T07:50:04.808Z,94452.41
2022-12-23T07:52:31.060Z,94457.47
2022-12-23T07:54:57.296Z,94450.78
2022-12-23T07:57:23.560Z,94456.88
2022-12-23T07:59:49.809Z,94452.59
2022-12-23T08:02:16.179Z,94451.59
2022-12-23T08:04:45.988Z,94452.00
2022-12-23T08:07:12.848Z,94449.81
2022-12-23T08:09:39.124Z,94458.16
2022-12-23T08:12:05.372Z,94451.88
2022-12-23T08:14:31.620Z,94452.81
2022-12-23T08:16:57.936Z,94444.72
2022-12-23T08:19:24.200Z,94445.94
2022-12-23T08:21:50.442Z,94453.28
2022-12-23T08:24:16.692Z,94443.09
2022-12-23T08:26:42.943Z,94459.03
2022-12-23T08:29:09.191Z,94463.03
2022-12-23T08:31:35.476Z,94473.31
2022-12-23T08:34:01.794Z,94458.50
2022-12-23T08:36:28.068Z,94463.50
2022-12-23T08:38:54.329Z,94459.50
2022-12-23T08:41:20.584Z,94465.19
2022-12-23T08:43:46.843Z,94461.59
2022-12-23T08:46:13.110Z,94464.84
2022-12-23T08:48:43.723Z,94463.03
2022-12-23T08:51:13.291Z,94462.41
2022-12-23T08:53:39.552Z,94465.66
2022-12-23T08:56:05.843Z,94475.69
2022-12-23T08:58:32.107Z,94465.09
2022-12-23T09:00:58.348Z,94470.88
2022-12-23T09:03:24.706Z,94473.56
2022-12-23T09:05:51.068Z,94475.59
2022-12-23T09:08:17.315Z,94482.56
2022-12-23T09:10:43.589Z,94492.09
2022-12-23T09:13:09.835Z,94488.59
2022-12-23T09:15:36.116Z,94492.44
2022-12-23T09:18:02.387Z,94482.38
2022-12-23T09:20:28.641Z,94487.63
2022-12-23T09:22:54.889Z,94489.25
2022-12-23T09:25:21.149Z,94483.47
2022-12-23T09:27:47.401Z,94490.94
2022-12-23T09:30:13.652Z,94493.97
2022-12-23T09:32:39.899Z,94494.19
2022-12-23T09:35:06.158Z,94497.19
2022-12-23T09:37:32.441Z,94497.00
2022-12-23T09:39:58.688Z,94493.78
2022-12-23T09:42:24.925Z,94491.53
2022-12-23T09:44:51.171Z,94484.63
2022-12-23T09:47:17.431Z,94497.84
2022-12-23T09:49:43.696Z,94485.16
2022-12-23T09:52:09.929Z,94465.88
2022-12-23T09:54:36.176Z,94482.72
2022-12-23T09:57:02.425Z,94475.22
2022-12-23T09:59:28.679Z,94476.28
2022-12-23T10:01:55.138Z,94475.28
2022-12-23T10:04:21.530Z,94477.97
2022-12-23T10:06:47.830Z,94479.59
2022-12-23T10:09:14.075Z,94477.81
2022-12-23T10:11:40.314Z,94477.81
2022-12-23T10:14:06.580Z,94466.44
2022-12-23T10:16:32.901Z,94483.91
2022-12-23T10:18:59.168Z,94468.47
2022-12-23T10:21:25.418Z,94474.16
2022-12-23T10:23:51.697Z,94469.72
2022-12-23T10:26:17.958Z,94480.66
2022-12-23T10:28:44.238Z,94465.44
2022-12-23T10:31:38.677Z,94469.94
2022-12-23T10:33:56.727Z,94466.69
2022-12-23T10:36:23.024Z,94456.56
2022-12-23T10:38:49.287Z,94481.34
2022-12-23T10:41:15.555Z,94479.94
2022-12-23T10:43:41.824Z,94483.50
2022-12-23T10:46:08.373Z,94480.03
2022-12-23T10:48:34.649Z,94477.16
2022-12-23T10:51:00.891Z,94483.91
2022-12-23T10:53:27.140Z,94465.41
2022-12-23T10:55:53.396Z,94467.84
2022-12-23T10:58:19.651Z,94457.50
2022-12-23T11:00:45.944Z,94471.56
2022-12-23T11:03:12.300Z,94466.13
2022-12-23T11:05:38.609Z,94473.84
2022-12-23T11:08:04.875Z,94464.09
2022-12-23T11:10:31.117Z,94468.97
2022-12-23T11:12:57.367Z,94464.09
2022-12-23T11:15:23.621Z,94466.75
2022-12-23T11:17:49.857Z,94475.81
2022-12-23T11:20:16.181Z,94474.84
2022-12-23T11:22:42.500Z,94471.16
2022-12-23T11:25:08.755Z,94481.72
2022-12-23T11:27:35.063Z,94473.34
2022-12-23T11:30:01.363Z,94476.19
2022-12-23T11:32:27.645Z,94485.31
2022-12-23T11:34:53.900Z,94485.31
2022-12-23T11:37:20.173Z,94471.91
2022-12-23T11:39:46.418Z,94481.25
2022-12-23T11:42:12.679Z,94484.25
2022-12-23T11:44:38.920Z,94478.22
2022-12-23T11:47:05.188Z,94480.84
2022-12-23T11:49:31.455Z,94480.41
2022-12-23T11:51:57.719Z,94466.03
2022-12-23T11:54:23.986Z,94469.28
2022-12-23T11:56:50.295Z,94478.00
2022-12-23T11:59:16.578Z,94475.00
2022-12-23T12:01:42.854Z,94473.59
2022-12-23T12:04:09.106Z,94458.00
2022-12-23T12:06:35.371Z,94468.56
2022-12-23T12:09:01.654Z,94457.34
2022-12-23T12:11:27.901Z,94465.25
2022-12-23T12:13:54.153Z,94460.34
2022-12-23T12:16:20.856Z,94455.69
2022-12-23T12:18:52.076Z,94457.13
2022-12-23T12:21:21.606Z,94459.16
2022-12-23T12:23:48.901Z,94462.84
2022-12-23T12:26:15.216Z,94463.84
2022-12-23T12:28:41.467Z,94466.88
2022-12-23T12:31:07.785Z,94478.63
2022-12-23T12:33:34.091Z,94474.16
2022-12-23T12:36:05.113Z,94466.84
2022-12-23T12:38:31.816Z,94463.63
2022-12-23T12:40:58.065Z,94458.72
2022-12-23T12:43:24.381Z,94456.53
2022-12-23T12:45:50.757Z,94444.16
2022-12-23T12:48:18.966Z,94449.63
2022-12-23T12:50:45.412Z,94437.69
2022-12-23T12:53:11.661Z,94437.47
2022-12-23T12:55:37.936Z,94447.84
2022-12-23T12:58:04.228Z,94436.06
2022-12-23T13:00:30.474Z,94437.50
2022-12-23T13:02:56.816Z,94434.06
2022-12-23T13:05:23.121Z,94434.66
2022-12-23T13:07:49.378Z,94425.19
2022-12-23T13:10:15.668Z,94411.19
2022-12-23T13:12:41.928Z,94421.13
2022-12-23T13:15:08.201Z,94413.59
2022-12-23T13:17:34.454Z,94426.63
2022-12-23T13:20:00.711Z,94419.44
2022-12-23T13:22:26.962Z,94428.38
2022-12-23T13:24:53.241Z,94432.44
2022-12-23T13:27:19.503Z,94448.78
2022-12-23T13:29:45.759Z,94454.59
2022-12-23T13:32:12.021Z,94453.75
2022-12-23T13:34:38.279Z,94454.78
2022-12-23T13:37:04.616Z,94456.41
2022-12-23T13:39:30.862Z,94448.44
2022-12-23T13:42:03.000Z,94453.56
2022-12-23T13:44:31.237Z,94456.81
2022-12-23T13:46:57.498Z,94453.16
2022-12-23T13:49:23.757Z,94449.66
2022-12-23T13:51:50.011Z,94455.56
2022-12-23T13:54:16.255Z,94451.38
2022-12-23T13:56:42.510Z,94451.94
2022-12-23T13:59:08.766Z,94455.88
2022-12-23T14:01:35.084Z,94448.47
2022-12-23T14:04:01.507Z,94444.22
2022-12-23T14:06:27.761Z,94445.09
2022-12-23T14:08:54.003Z,94437.56
2022-12-23T14:11:20.255Z,94440.03
2022-12-23T14:13:46.519Z,94444.69
2022-12-23T14:16:12.838Z,94446.31
2022-12-23T14:18:39.128Z,94439.41
2022-12-23T14:21:05.381Z,94454.44
2022-12-23T14:23:31.652Z,94458.53
2022-12-23T14:25:57.929Z,94446.97
2022-12-23T14:28:24.207Z,94446.53
2022-12-23T14:30:50.540Z,94458.34
2022-12-23T14:33:16.830Z,94452.03
2022-12-23T14:35:43.235Z,94448.16
2022-12-23T14:38:09.476Z,94455.25
2022-12-23T14:40:35.734Z,94453.63
2022-12-23T14:43:01.987Z,94447.56
2022-12-23T14:45:28.259Z,94450.22
2022-12-23T14:47:54.524Z,94458.50
2022-12-23T14:50:20.775Z,94465.81
2022-12-23T14:52:47.076Z,94471.75
2022-12-23T14:55:32.331Z,94457.53
2022-12-23T14:58:03.034Z,94460.16
2022-12-23T15:00:32.071Z,94457.63
2022-12-23T15:02:58.365Z,94455.38
2022-12-23T15:05:24.750Z,94465.81
2022-12-23T15:07:50.996Z,94453.44
2022-12-23T15:10:17.265Z,94452.00
2022-12-23T15:12:43.540Z,94457.69
2022-12-23T15:15:09.812Z,94473.06
2022-12-23T15:17:36.053Z,94469.88
2022-12-23T15:20:02.366Z,94466.66
2022-12-23T15:22:32.492Z,94476.38
2022-12-23T15:24:59.020Z,94472.84
2022-12-23T15:27:27.663Z,94474.84
2022-12-23T15:29:54.898Z,94474.44
2022-12-23T15:32:21.144Z,94469.38
2022-12-23T15:34:47.382Z,94463.06
2022-12-23T15:37:13.645Z,94463.69
2022-12-23T15:39:39.905Z,94467.44
2022-12-23T15:42:06.181Z,94459.31
2022-12-23T15:44:32.460Z,94482.28
2022-12-23T15:46:58.801Z,94474.97
2022-12-23T15:49:25.112Z,94475.56
2022-12-23T15:52:07.819Z,94469.50
2022-12-23T15:54:37.076Z,94462.59
2022-12-23T15:57:03.341Z,94465.47
2022-12-23T15:59:29.597Z,94465.06
2022-12-23T16:01:56.045Z,94453.06
2022-12-23T16:04:22.410Z,94464.66
2022-12-23T16:06:48.701Z,94469.13
2022-12-23T16:09:14.991Z,94474.22
2022-12-23T16:11:41.246Z,94491.66
2022-12-23T16:14:07.505Z,94477.63
2022-12-23T16:16:33.820Z,94473.72
2022-12-23T16:19:00.100Z,94467.97
2022-12-23T16:21:26.447Z,94473.94
2022-12-23T16:23:52.693Z,94473.56
2022-12-23T16:26:18.970Z,94468.09
2022-12-23T16:28:45.231Z,94464.84
2022-12-23T16:31:11.536Z,94470.31
2022-12-23T16:33:37.935Z,94471.31
2022-12-23T16:36:04.246Z,94461.06
2022-12-23T16:38:30.534Z,94462.16
2022-12-23T16:40:56.787Z,94457.28
2022-12-23T16:43:23.052Z,94467.25
2022-12-23T16:45:49.357Z,94459.34
2022-12-23T16:48:15.713Z,94459.16
2022-12-23T16:50:42.001Z,94445.50
2022-12-23T16:53:08.281Z,94458.53
2022-12-23T16:55:34.536Z,94458.72
2022-12-23T16:58:00.796Z,94462.97
2022-12-23T17:00:27.031Z,94459.34
2022-12-23T17:02:53.317Z,94450.63
2022-12-23T17:05:19.591Z,94453.44
2022-12-23T17:07:45.917Z,94458.09
2022-12-23T17:10:12.182Z,94466.63
2022-12-23T17:12:38.462Z,94455.06
2022-12-23T17:15:04.708Z,94465.66
2022-12-23T17:17:30.959Z,94454.06
2022-12-23T17:19:57.226Z,94466.22
2022-12-23T17:22:23.468Z,94471.91
2022-12-23T17:24:49.750Z,94462.28
2022-12-23T17:27:15.994Z,94467.44
2022-12-23T17:29:42.239Z,94479.84
2022-12-23T17:32:08.563Z,94482.06
2022-12-23T17:34:34.860Z,94485.72
2022-12-23T17:37:01.278Z,94493.69
2022-12-23T17:39:27.589Z,94499.88
2022-12-23T17:41:53.880Z,94499.66
2022-12-23T17:44:20.148Z,94505.94
2022-12-23T17:46:46.400Z,94513.44
2022-12-23T17:49:12.664Z,94518.91
2022-12-23T17:51:38.903Z,94538.16
2022-12-23T17:54:05.162Z,94538.53
2022-12-23T17:56:31.433Z,94552.38
2022-12-23T17:58:57.690Z,94544.34
2022-12-23T18:01:24.076Z,94541.72
2022-12-23T18:03:50.371Z,94549.22
2022-12-23T18:06:16.640Z,94549.63
2022-12-23T18:08:42.880Z,94556.16
2022-12-23T18:11:09.172Z,94557.66
2022-12-23T18:13:35.432Z,94563.34
2022-12-23T18:16:01.692Z,94568.81
2022-12-23T18:18:37.707Z,94567.09
2022-12-23T18:21:08.109Z,94581.25
2022-12-23T18:23:34.422Z,94582.31
2022-12-23T18:26:00.760Z,94584.53
2022-12-23T18:28:27.061Z,94592.75
2022-12-23T18:30:53.398Z,94593.13
2022-12-23T18:33:19.675Z,94588.66
2022-12-23T18:35:46.017Z,94584.59
2022-12-23T18:38:12.289Z,94572.59
2022-12-23T18:40:38.553Z,94571.19
2022-12-23T18:43:04.819Z,94570.81
2022-12-23T18:45:31.079Z,94567.75
2022-12-23T18:47:57.320Z,94562.47
2022-12-23T18:50:23.585Z,94568.38
2022-12-23T18:52:49.847Z,94568.16
2022-12-23T18:55:16.104Z,94563.53
2022-12-23T18:57:42.342Z,94566.34
2022-12-23T19:00:08.604Z,94556.38
2022-12-23T19:02:34.923Z,94566.94
2022-12-23T19:05:01.203Z,94572.59
2022-12-23T19:07:27.469Z,94560.84
2022-12-23T19:09:53.727Z,94567.16
2022-12-23T19:12:19.996Z,94558.19
2022-12-23T19:14:46.256Z,94533.81
2022-12-23T19:17:12.531Z,94535.03
2022-12-23T19:19:38.776Z,94548.22
2022-12-23T19:22:05.025Z,94549.03
2022-12-23T19:24:31.277Z,94544.34
2022-12-23T19:26:57.520Z,94534.34
2022-12-23T19:29:23.761Z,94542.56
2022-12-23T19:31:50.014Z,94547.84
2022-12-23T19:34:16.279Z,94563.41
2022-12-23T19:36:42.580Z,94562.56
2022-12-23T19:39:08.855Z,94563.00
2022-12-23T19:41:35.115Z,94559.53
2022-12-23T19:44:01.368Z,94563.81
2022-12-23T19:46:27.653Z,94546.34
2022-12-23T19:48:54.013Z,94553.22
2022-12-23T19:51:20.321Z,94535.34
2022-12-23T19:53:46.569Z,94531.44
2022-12-23T19:56:12.833Z,94558.91
2022-12-23T19:58:39.097Z,94550.16
2022-12-23T20:01:05.344Z,94560.28
2022-12-23T20:03:31.639Z,94542.41
2022-12-23T20:05:57.992Z,94556.25
2022-12-23T20:08:24.255Z,94540.00
2022-12-23T20:10:50.563Z,94530.44
2022-12-23T20:13:16.813Z,94531.28
2022-12-23T20:15:43.093Z,94524.19
2022-12-23T20:18:09.369Z,94532.53
2022-12-23T20:20:35.609Z,94533.13
2022-12-23T20:23:01.875Z,94540.03
2022-12-23T20:25:28.143Z,94546.34
2022-12-23T20:27:54.397Z,94546.50
2022-12-23T20:30:20.650Z,94537.75
2022-12-23T20:32:46.888Z,94558.50
2022-12-23T20:35:13.129Z,94553.63
2022-12-23T20:37:39.404Z,94557.91
2022-12-23T20:40:05.681Z,94547.34
2022-12-23T20:42:31.939Z,94550.97
2022-12-23T20:44:58.210Z,94553.63
2022-12-23T20:47:24.467Z,94555.84
2022-12-23T20:49:50.723Z,94559.88
2022-12-23T20:52:16.999Z,94551.13
2022-12-23T20:54:43.262Z,94555.00
2022-12-23T20:57:09.528Z,94548.28
2022-12-23T20:59:35.777Z,94553.44
2022-12-23T21:02:02.194Z,94561.78
2022-12-23T21:04:28.590Z,94565.41
2022-12-23T21:06:54.836Z,94571.28
2022-12-23T21:09:21.118Z,94566.41
2022-12-23T21:11:47.360Z,94545.84
2022-12-23T21:14:13.626Z,94548.13
2022-12-23T21:16:39.971Z,94558.34
2022-12-23T21:19:06.329Z,94545.94
2022-12-23T21:21:32.579Z,94556.91
2022-12-23T21:23:58.848Z,94571.50
2022-12-23T21:26:25.130Z,94573.88
2022-12-23T21:28:51.387Z,94589.94
2022-12-23T21:31:17.665Z,94604.22
2022-12-23T21:33:43.926Z,94615.00
2022-12-23T21:36:12.669Z,94620.34
2022-12-23T21:38:41.274Z,94616.25
2022-12-23T21:41:07.539Z,94630.75
2022-12-23T21:43:33.798Z,94630.88
2022-12-23T21:46:00.069Z,94607.28
2022-12-23T21:48:26.361Z,94614.59
2022-12-23T21:50:52.621Z,94618.09
2022-12-23T21:53:18.874Z,94608.09
2022-12-23T21:55:45.118Z,94600.50
2022-12-23T21:58:11.365Z,94597.31
2022-12-23T22:00:37.636Z,94577.88
2022-12-23T22:03:03.920Z,94572.78
2022-12-23T22:05:30.181Z,94576.13
2022-12-23T22:07:56.437Z,94559.72
2022-12-23T22:10:22.710Z,94567.50
2022-12-23T22:12:48.966Z,94569.88
2022-12-23T22:15:15.246Z,94565.75
2022-12-23T22:17:41.517Z,94561.81
2022-12-23T22:20:07.787Z,94571.78
2022-12-23T22:22:34.053Z,94567.44
2022-12-23T22:25:00.306Z,94562.91
2022-12-23T22:27:26.567Z,94569.63
2022-12-23T22:29:52.815Z,94567.50
2022-12-23T22:32:19.054Z,94566.50
2022-12-23T22:34:45.293Z,94572.88
2022-12-23T22:37:11.553Z,94574.06
2022-12-23T22:39:37.812Z,94580.13
2022-12-23T22:42:04.058Z,94578.75
2022-12-23T22:44:30.300Z,94593.19
2022-12-23T22:46:56.685Z,94591.00
2022-12-23T22:49:23.049Z,94595.88
2022-12-23T22:51:49.296Z,94600.41
2022-12-23T22:54:15.605Z,94599.41
2022-12-23T22:56:41.921Z,94596.56
2022-12-23T22:59:08.180Z,94598.66
2022-12-23T23:01:34.514Z,94607.66
2022-12-23T23:04:00.828Z,94598.31
2022-12-23T23:06:27.076Z,94599.81
2022-12-23T23:08:53.354Z,94609.44
2022-12-23T23:11:19.589Z,94609.88
2022-12-23T23:13:45.846Z,94607.91
2022-12-23T23:16:12.132Z,94615.44
2022-12-23T23:18:38.420Z,94618.31
2022-12-23T23:21:04.693Z,94618.38
2022-12-23T23:23:30.954Z,94642.19
2022-12-23T23:25:57.212Z,94641.84
2022-12-23T23:28:23.481Z,94646.47
2022-12-23T23:30:59.087Z,94638.59
2022-12-23T23:33:35.940Z,94638.97
2022-12-23T23:36:02.239Z,94627.22
2022-12-23T23:38:28.517Z,94622.06
2022-12-23T23:40:54.797Z,94629.69
2022-12-23T23:43:21.041Z,94641.78
2022-12-23T23:45:47.407Z,94652.56
2022-12-23T23:48:13.712Z,94667.22
2022-12-23T23:50:39.987Z,94666.94
2022-12-23T23:53:06.243Z,94662.16
2022-12-23T23:55:32.498Z,94676.94
2022-12-23T23:57:58.863Z,94680.19
